createdAt,value
2023-02-05T00:00:29.686Z,61.88
2023-02-05T00:03:18.102Z,61.32
2023-02-05T00:05:46.206Z,60.68
2023-02-05T00:08:14.958Z,60.64
2023-02-05T00:10:42.944Z,60.51
2023-02-05T00:13:11.231Z,60.56
2023-02-05T00:15:42.050Z,60.72
2023-02-05T00:18:10.550Z,60.46
2023-02-05T00:20:38.558Z,60.70
2023-02-05T00:23:06.938Z,60.78
2023-02-05T00:25:35.153Z,60.88
2023-02-05T00:28:03.907Z,60.26
2023-02-05T00:30:32.099Z,60.14
2023-02-05T00:33:00.463Z,59.78
2023-02-05T00:35:29.243Z,59.57
2023-02-05T00:37:57.623Z,59.75
2023-02-05T00:40:25.626Z,59.45
2023-02-05T00:42:53.906Z,59.37
2023-02-05T00:45:21.832Z,60.18
2023-02-05T00:47:50.036Z,59.35
2023-02-05T00:50:17.974Z,58.94
2023-02-05T00:52:46.421Z,58.88
2023-02-05T00:55:14.472Z,58.73
2023-02-05T00:57:43.062Z,58.31
2023-02-05T01:00:11.566Z,58.57
2023-02-05T01:02:40.037Z,58.48
2023-02-05T01:05:08.704Z,58.67
2023-02-05T01:07:37.004Z,57.74
2023-02-05T01:10:05.825Z,58.03
2023-02-05T01:12:34.325Z,57.70
2023-02-05T01:15:03.578Z,57.37
2023-02-05T01:17:32.040Z,57.26
2023-02-05T01:19:59.919Z,57.51
2023-02-05T01:22:28.204Z,57.98
2023-02-05T01:24:56.135Z,57.79
2023-02-05T01:27:24.934Z,58.20
2023-02-05T01:29:52.835Z,58.42
2023-02-05T01:32:21.679Z,57.74
2023-02-05T01:34:49.584Z,57.32
2023-02-05T01:37:18.064Z,56.92
2023-02-05T01:39:46.169Z,56.99
2023-02-05T01:42:26.539Z,57.03
2023-02-05T01:45:22.176Z,57.10
2023-02-05T01:48:02.701Z,56.77
2023-02-05T01:50:33.739Z,57.26
2023-02-05T01:53:08.574Z,57.14
2023-02-05T01:55:48.536Z,57.28
2023-02-05T01:58:17.280Z,57.18
2023-02-05T02:00:45.631Z,56.70
2023-02-05T02:03:16.255Z,56.63
2023-02-05T02:05:44.235Z,56.79
2023-02-05T02:08:14.122Z,56.45
2023-02-05T02:10:44.799Z,56.37
2023-02-05T02:13:13.899Z,56.48
2023-02-05T02:15:42.642Z,56.59
2023-02-05T02:18:28.180Z,57.05
2023-02-05T02:21:21.820Z,56.76
2023-02-05T02:24:02.190Z,56.73
2023-02-05T02:26:53.873Z,56.20
2023-02-05T02:29:38.284Z,56.06
2023-02-05T02:32:18.799Z,56.17
2023-02-05T02:35:04.781Z,56.97
2023-02-05T02:38:05.266Z,56.42
2023-02-05T02:40:54.612Z,56.26
2023-02-05T02:43:37.649Z,56.40
2023-02-05T02:46:32.411Z,56.17
2023-02-05T02:49:02.754Z,56.17
2023-02-05T02:51:34.345Z,56.51
2023-02-05T02:54:07.803Z,56.76
2023-02-05T02:56:38.286Z,56.20
2023-02-05T02:59:10.826Z,56.02
2023-02-05T03:01:52.321Z,56.15
2023-02-05T03:04:28.167Z,56.57
2023-02-05T03:07:06.734Z,56.59
2023-02-05T03:09:52.835Z,56.15
2023-02-05T03:12:23.307Z,56.47
2023-02-05T03:14:51.856Z,56.60
2023-02-05T03:17:21.998Z,56.28
2023-02-05T03:20:11.397Z,56.11
2023-02-05T03:22:39.714Z,56.77
2023-02-05T03:25:08.560Z,56.94
2023-02-05T03:27:37.926Z,56.67
2023-02-05T03:30:07.716Z,57.39
2023-02-05T03:33:00.107Z,57.25
2023-02-05T03:36:06.931Z,57.90
2023-02-05T03:38:52.986Z,57.32
2023-02-05T03:41:58.634Z,57.33
2023-02-05T03:44:43.662Z,57.60
2023-02-05T03:47:42.575Z,57.57
2023-02-05T03:50:22.145Z,57.90
2023-02-05T03:53:02.905Z,57.97
2023-02-05T03:55:39.633Z,58.04
2023-02-05T03:58:14.160Z,57.70
2023-02-05T04:00:43.945Z,57.46
2023-02-05T04:03:13.889Z,58.09
2023-02-05T04:05:43.264Z,58.64
2023-02-05T04:08:12.219Z,58.78
2023-02-05T04:10:45.838Z,58.60
2023-02-05T04:13:14.133Z,58.09
2023-02-05T04:15:44.397Z,57.99
2023-02-05T04:18:14.762Z,58.17
2023-02-05T04:20:45.680Z,58.27
2023-02-05T04:23:15.913Z,58.66
2023-02-05T04:25:45.904Z,58.67
2023-02-05T04:28:18.851Z,58.63
2023-02-05T04:30:47.243Z,58.38
2023-02-05T04:33:15.323Z,58.63
2023-02-05T04:35:43.775Z,58.30
2023-02-05T04:38:12.425Z,58.90
2023-02-05T04:40:40.473Z,58.90
2023-02-05T04:43:08.156Z,59.10
2023-02-05T04:45:36.706Z,59.24
2023-02-05T04:48:06.968Z,59.42
2023-02-05T04:50:35.254Z,59.23
2023-02-05T04:53:03.014Z,59.55
2023-02-05T04:55:32.738Z,60.18
2023-02-05T04:58:00.694Z,59.46
2023-02-05T05:00:28.803Z,59.97
2023-02-05T05:02:57.853Z,60.45
2023-02-05T05:05:26.164Z,60.02
2023-02-05T05:07:53.966Z,59.88
2023-02-05T05:10:22.286Z,60.07
2023-02-05T05:12:50.123Z,59.85
2023-02-05T05:15:18.233Z,59.48
2023-02-05T05:17:45.993Z,59.62
2023-02-05T05:20:14.057Z,59.00
2023-02-05T05:22:41.744Z,59.13
2023-02-05T05:25:09.805Z,59.21
2023-02-05T05:27:37.633Z,59.34
2023-02-05T05:30:06.326Z,59.33
2023-02-05T05:32:34.094Z,58.50
2023-02-05T05:35:02.248Z,58.96
2023-02-05T05:37:30.141Z,58.97
2023-02-05T05:40:16.943Z,58.40
2023-02-05T05:43:02.985Z,58.96
2023-02-05T05:45:31.082Z,59.28
2023-02-05T05:47:58.930Z,59.58
2023-02-05T05:50:27.114Z,59.74
2023-02-05T05:53:02.316Z,59.65
2023-02-05T05:55:30.497Z,59.80
2023-02-05T05:57:58.352Z,60.02
2023-02-05T06:00:26.463Z,59.83
2023-02-05T06:02:54.294Z,59.91
2023-02-05T06:05:22.760Z,60.44
2023-02-05T06:07:50.621Z,60.00
2023-02-05T06:10:18.842Z,60.07
2023-02-05T06:12:46.770Z,60.50
2023-02-05T06:15:14.998Z,59.91
2023-02-05T06:17:42.878Z,60.02
2023-02-05T06:20:12.681Z,59.81
2023-02-05T06:22:41.509Z,59.92
2023-02-05T06:25:09.580Z,59.74
2023-02-05T06:27:37.407Z,59.31
2023-02-05T06:30:05.851Z,59.44
2023-02-05T06:32:33.659Z,59.70
2023-02-05T06:35:01.830Z,59.59
2023-02-05T06:37:46.112Z,59.90
2023-02-05T06:40:18.362Z,59.34
2023-02-05T06:42:46.330Z,60.04
2023-02-05T06:45:14.768Z,59.74
2023-02-05T06:47:42.652Z,59.27
2023-02-05T06:50:11.300Z,59.47
2023-02-05T06:52:39.361Z,59.50
2023-02-05T06:55:07.871Z,59.48
2023-02-05T06:57:35.648Z,59.10
2023-02-05T07:00:05.843Z,59.21
2023-02-05T07:02:33.686Z,59.12
2023-02-05T07:05:01.785Z,59.16
2023-02-05T07:07:29.542Z,59.24
2023-02-05T07:09:57.760Z,59.16
2023-02-05T07:12:25.591Z,59.61
2023-02-05T07:14:53.694Z,59.26
2023-02-05T07:17:21.446Z,59.80
2023-02-05T07:19:49.916Z,58.64
2023-02-05T07:22:17.668Z,59.51
2023-02-05T07:24:45.709Z,59.27
2023-02-05T07:27:13.421Z,58.69
2023-02-05T07:29:41.665Z,58.32
2023-02-05T07:32:09.754Z,58.40
2023-02-05T07:34:38.402Z,58.23
2023-02-05T07:37:06.220Z,57.89
2023-02-05T07:39:34.215Z,57.10
2023-02-05T07:42:02.001Z,56.97
2023-02-05T07:44:38.624Z,56.24
2023-02-05T07:47:06.295Z,55.87
2023-02-05T07:49:34.370Z,55.76
2023-02-05T07:52:02.163Z,55.70
2023-02-05T07:54:30.291Z,55.82
2023-02-05T07:57:00.472Z,55.56
2023-02-05T07:59:28.777Z,55.92
2023-02-05T08:01:56.489Z,56.27
2023-02-05T08:04:24.625Z,56.02
2023-02-05T08:06:52.450Z,56.37
2023-02-05T08:09:20.586Z,55.72
2023-02-05T08:11:48.353Z,54.69
2023-02-05T08:14:16.510Z,54.68
2023-02-05T08:16:44.313Z,54.11
2023-02-05T08:19:17.979Z,54.54
2023-02-05T08:21:45.951Z,53.87
2023-02-05T08:24:14.043Z,54.90
2023-02-05T08:26:42.012Z,54.45
2023-02-05T08:29:11.501Z,54.80
2023-02-05T08:31:39.279Z,53.56
2023-02-05T08:34:07.374Z,53.21
2023-02-05T08:36:35.234Z,53.17
2023-02-05T08:39:03.721Z,51.70
2023-02-05T08:41:31.484Z,51.11
2023-02-05T08:43:59.606Z,50.58
2023-02-05T08:46:33.891Z,50.08
2023-02-05T08:49:12.049Z,49.34
2023-02-05T08:51:39.862Z,49.00
2023-02-05T08:54:13.110Z,48.31
2023-02-05T08:56:43.147Z,47.92
2023-02-05T08:59:12.664Z,47.84
2023-02-05T09:01:43.320Z,47.26
2023-02-05T09:04:23.616Z,47.53
2023-02-05T09:06:51.790Z,47.48
2023-02-05T09:09:20.010Z,47.77
2023-02-05T09:11:47.975Z,47.22
2023-02-05T09:14:16.149Z,47.03
2023-02-05T09:16:43.966Z,48.23
2023-02-05T09:19:12.293Z,48.20
2023-02-05T09:21:41.627Z,48.78
2023-02-05T09:24:10.149Z,48.63
2023-02-05T09:26:37.914Z,48.17
2023-02-05T09:29:06.088Z,48.17
2023-02-05T09:31:33.895Z,48.55
2023-02-05T09:34:03.595Z,48.90
2023-02-05T09:36:31.547Z,49.08
2023-02-05T09:39:13.408Z,49.01
2023-02-05T09:42:07.508Z,48.27
2023-02-05T09:45:11.879Z,48.11
2023-02-05T09:47:55.205Z,47.71
2023-02-05T09:50:30.085Z,48.10
2023-02-05T09:53:06.040Z,46.82
2023-02-05T09:55:38.963Z,47.26
2023-02-05T09:58:20.625Z,47.27
2023-02-05T10:01:01.280Z,48.06
2023-02-05T10:03:42.610Z,47.65
2023-02-05T10:06:11.349Z,47.08
2023-02-05T10:09:02.681Z,47.26
2023-02-05T10:11:36.827Z,47.39
2023-02-05T10:14:13.584Z,48.42
2023-02-05T10:17:00.323Z,48.75
2023-02-05T10:19:40.147Z,48.02
2023-02-05T10:22:22.753Z,48.05
2023-02-05T10:25:31.651Z,47.60
2023-02-05T10:28:23.905Z,47.94
2023-02-05T10:30:56.369Z,47.87
2023-02-05T10:34:19.924Z,47.40
2023-02-05T10:36:53.311Z,47.04
2023-02-05T10:39:25.155Z,47.97
2023-02-05T10:42:34.258Z,47.69
2023-02-05T10:45:28.311Z,47.89
2023-02-05T10:47:58.986Z,48.41
2023-02-05T10:50:45.886Z,47.80
2023-02-05T10:53:18.351Z,47.16
2023-02-05T10:55:46.597Z,47.11
2023-02-05T10:58:26.166Z,46.56
2023-02-05T11:00:54.796Z,47.29
2023-02-05T11:03:23.743Z,47.04
2023-02-05T11:05:52.705Z,46.64
2023-02-05T11:08:44.157Z,47.15
2023-02-05T11:11:40.536Z,48.48
2023-02-05T11:14:21.005Z,47.56
2023-02-05T11:16:49.275Z,47.36
2023-02-05T11:19:26.117Z,47.66
2023-02-05T11:21:57.733Z,47.28
2023-02-05T11:24:27.816Z,47.22
2023-02-05T11:27:27.102Z,46.92
2023-02-05T11:29:56.725Z,47.01
2023-02-05T11:32:38.691Z,47.47
2023-02-05T11:35:28.334Z,48.36
2023-02-05T11:38:06.742Z,48.44
2023-02-05T11:40:35.666Z,47.80
2023-02-05T11:43:30.856Z,46.83
2023-02-05T11:46:00.621Z,46.54
2023-02-05T11:48:32.923Z,46.31
2023-02-05T11:51:06.029Z,45.96
2023-02-05T11:53:36.013Z,45.19
2023-02-05T11:56:10.254Z,45.19
2023-02-05T11:58:38.854Z,44.96
2023-02-05T12:01:24.308Z,45.30
2023-02-05T12:04:20.506Z,45.57
2023-02-05T12:06:53.650Z,45.37
2023-02-05T12:09:24.234Z,45.72
2023-02-05T12:12:29.419Z,45.95
2023-02-05T12:15:19.653Z,47.21
2023-02-05T12:18:20.431Z,47.87
2023-02-05T12:21:27.320Z,49.28
2023-02-05T12:24:04.253Z,48.68
2023-02-05T12:26:58.603Z,49.76
2023-02-05T12:30:08.361Z,48.68
2023-02-05T12:32:48.527Z,47.57
2023-02-05T12:35:28.675Z,48.96
2023-02-05T12:38:21.079Z,48.95
2023-02-05T12:41:34.003Z,49.78
2023-02-05T12:44:20.419Z,49.59
2023-02-05T12:46:56.015Z,49.43
2023-02-05T12:49:24.185Z,49.42
2023-02-05T12:52:10.823Z,50.05
2023-02-05T12:54:50.557Z,49.31
2023-02-05T12:57:22.534Z,49.41
2023-02-05T13:00:01.440Z,50.70
2023-02-05T13:02:37.053Z,50.11
2023-02-05T13:05:30.864Z,50.32
2023-02-05T13:08:13.769Z,50.20
2023-02-05T13:10:53.555Z,50.70
2023-02-05T13:13:28.311Z,51.90
2023-02-05T13:16:06.238Z,51.22
2023-02-05T13:18:46.055Z,51.49
2023-02-05T13:21:37.050Z,51.15
2023-02-05T13:24:51.507Z,50.98
2023-02-05T13:27:50.456Z,50.52
2023-02-05T13:30:26.904Z,50.22
2023-02-05T13:33:00.477Z,49.88
2023-02-05T13:35:43.015Z,49.77
2023-02-05T13:38:39.447Z,50.17
2023-02-05T13:41:27.661Z,50.44
2023-02-05T13:44:20.115Z,50.56
2023-02-05T13:47:18.527Z,50.12
2023-02-05T13:50:07.966Z,50.59
2023-02-05T13:52:49.100Z,50.82
2023-02-05T13:55:54.663Z,50.96
2023-02-05T13:58:39.304Z,50.82
2023-02-05T14:01:26.588Z,50.74
2023-02-05T14:04:01.604Z,51.04
2023-02-05T14:06:38.621Z,50.82
2023-02-05T14:09:37.851Z,50.98
2023-02-05T14:12:13.584Z,51.43
2023-02-05T14:14:42.139Z,51.32
2023-02-05T14:17:28.370Z,51.48
2023-02-05T14:19:59.115Z,51.94
2023-02-05T14:22:40.214Z,52.27
2023-02-05T14:25:35.806Z,51.91
2023-02-05T14:28:13.657Z,52.56
2023-02-05T14:30:58.942Z,52.87
2023-02-05T14:33:30.077Z,52.59
2023-02-05T14:36:21.923Z,52.82
2023-02-05T14:38:51.310Z,53.37
2023-02-05T14:41:33.853Z,54.23
2023-02-05T14:44:16.085Z,53.75
2023-02-05T14:46:54.481Z,54.78
2023-02-05T14:49:35.345Z,55.05
2023-02-05T14:52:31.661Z,56.74
2023-02-05T14:55:08.814Z,56.70
2023-02-05T14:57:54.346Z,56.84
2023-02-05T15:00:35.728Z,57.13
2023-02-05T15:03:25.377Z,57.16
2023-02-05T15:06:07.614Z,56.95
2023-02-05T15:08:36.135Z,56.97
2023-02-05T15:11:16.582Z,56.62
2023-02-05T15:14:31.107Z,57.40
2023-02-05T15:17:10.663Z,57.25
2023-02-05T15:19:45.363Z,57.88
2023-02-05T15:22:35.372Z,58.16
2023-02-05T15:25:14.814Z,58.58
2023-02-05T15:27:54.740Z,58.23
2023-02-05T15:30:28.572Z,58.85
2023-02-05T15:33:08.466Z,59.68
2023-02-05T15:35:37.821Z,59.22
2023-02-05T15:38:08.738Z,58.96
2023-02-05T15:40:41.993Z,59.35
2023-02-05T15:43:17.768Z,59.66
2023-02-05T15:45:46.449Z,59.56
2023-02-05T15:48:19.185Z,59.94
2023-02-05T15:51:19.224Z,60.01
2023-02-05T15:53:50.837Z,60.29
2023-02-05T15:56:42.346Z,59.90
2023-02-05T15:59:10.548Z,60.43
2023-02-05T16:01:38.333Z,60.50
2023-02-05T16:04:20.769Z,60.56
2023-02-05T16:06:49.008Z,61.43
2023-02-05T16:09:23.677Z,60.54
2023-02-05T16:11:54.297Z,61.01
2023-02-05T16:14:24.614Z,61.66
2023-02-05T16:17:21.908Z,62.31
2023-02-05T16:20:29.639Z,62.41
2023-02-05T16:23:01.931Z,62.05
2023-02-05T16:25:38.986Z,62.62
2023-02-05T16:28:18.940Z,63.05
2023-02-05T16:30:50.166Z,62.74
2023-02-05T16:33:46.459Z,63.05
2023-02-05T16:36:23.344Z,62.43
2023-02-05T16:38:56.976Z,62.95
2023-02-05T16:41:34.015Z,62.87
2023-02-05T16:44:06.231Z,62.54
2023-02-05T16:46:36.061Z,61.94
2023-02-05T16:49:28.254Z,62.30
2023-02-05T16:51:56.568Z,62.25
2023-02-05T16:54:33.615Z,62.71
2023-02-05T16:57:07.582Z,62.52
2023-02-05T16:59:55.742Z,62.34
2023-02-05T17:02:37.237Z,62.87
2023-02-05T17:05:31.417Z,62.43
2023-02-05T17:08:04.831Z,62.46
2023-02-05T17:10:49.720Z,62.35
2023-02-05T17:13:36.526Z,62.82
2023-02-05T17:16:27.865Z,62.53
2023-02-05T17:19:02.020Z,62.66
2023-02-05T17:21:37.779Z,62.78
2023-02-05T17:24:09.551Z,63.30
2023-02-05T17:26:41.077Z,63.15
2023-02-05T17:29:15.847Z,62.54
2023-02-05T17:31:43.938Z,62.36
2023-02-05T17:34:12.320Z,62.62
2023-02-05T17:36:40.765Z,63.02
2023-02-05T17:39:08.957Z,63.24
2023-02-05T17:42:13.039Z,63.17
2023-02-05T17:44:41.077Z,63.06
2023-02-05T17:47:09.842Z,62.83
2023-02-05T17:49:37.888Z,62.28
2023-02-05T17:52:05.791Z,61.80
2023-02-05T17:54:33.929Z,62.20
2023-02-05T17:57:14.469Z,61.74
2023-02-05T17:59:44.992Z,61.58
2023-02-05T18:02:14.216Z,61.61
2023-02-05T18:04:44.898Z,61.81
2023-02-05T18:07:28.725Z,62.39
2023-02-05T18:09:59.981Z,61.21
2023-02-05T18:12:28.426Z,61.87
2023-02-05T18:14:56.647Z,61.64
2023-02-05T18:17:24.675Z,61.50
2023-02-05T18:19:53.037Z,61.56
2023-02-05T18:22:21.652Z,61.74
2023-02-05T18:24:49.768Z,61.94
2023-02-05T18:27:19.209Z,61.69
2023-02-05T18:29:47.505Z,61.44
2023-02-05T18:32:15.299Z,61.91
2023-02-05T18:34:43.839Z,61.73
2023-02-05T18:37:14.317Z,62.79
2023-02-05T18:39:43.500Z,61.82
2023-02-05T18:42:13.290Z,62.01
2023-02-05T18:44:41.508Z,61.79
2023-02-05T18:47:11.142Z,60.95
2023-02-05T18:49:39.257Z,61.82
2023-02-05T18:52:08.098Z,61.51
2023-02-05T18:54:36.230Z,61.50
2023-02-05T18:57:04.050Z,61.08
2023-02-05T18:59:32.183Z,61.74
2023-02-05T19:01:59.904Z,61.57
2023-02-05T19:04:28.127Z,60.95
2023-02-05T19:06:56.002Z,61.40
2023-02-05T19:09:25.448Z,61.48
2023-02-05T19:11:55.624Z,61.16
2023-02-05T19:14:25.053Z,61.25
2023-02-05T19:16:53.222Z,61.17
2023-02-05T19:19:24.102Z,60.81
2023-02-05T19:21:53.896Z,60.77
2023-02-05T19:24:22.437Z,60.77
2023-02-05T19:26:51.368Z,60.56
2023-02-05T19:29:20.517Z,60.57
2023-02-05T19:31:49.304Z,60.72
2023-02-05T19:34:17.105Z,61.10
2023-02-05T19:36:45.501Z,60.81
2023-02-05T19:39:15.028Z,60.47
2023-02-05T19:41:48.426Z,60.50
2023-02-05T19:44:16.340Z,60.63
2023-02-05T19:46:45.365Z,60.75
2023-02-05T19:49:16.118Z,60.79
2023-02-05T19:51:46.162Z,60.98
2023-02-05T19:54:15.162Z,61.38
2023-02-05T19:56:44.881Z,61.03
2023-02-05T19:59:13.287Z,61.41
2023-02-05T20:01:43.991Z,61.56
2023-02-05T20:04:21.425Z,61.24
2023-02-05T20:06:49.650Z,61.36
2023-02-05T20:09:17.972Z,61.11
2023-02-05T20:11:49.172Z,61.34
2023-02-05T20:14:17.818Z,61.38
2023-02-05T20:16:47.036Z,60.74
2023-02-05T20:19:16.567Z,60.66
2023-02-05T20:21:46.606Z,60.58
2023-02-05T20:24:16.499Z,60.30
2023-02-05T20:26:48.628Z,60.79
2023-02-05T20:29:35.601Z,60.59
2023-02-05T20:32:04.597Z,60.88
2023-02-05T20:34:35.672Z,60.94
2023-02-05T20:37:07.045Z,60.58
2023-02-05T20:39:38.737Z,60.57
2023-02-05T20:42:07.242Z,59.82
2023-02-05T20:44:36.442Z,59.63
2023-02-05T20:47:08.855Z,59.70
2023-02-05T20:49:40.281Z,59.52
2023-02-05T20:52:09.821Z,59.34
2023-02-05T20:54:37.656Z,59.33
2023-02-05T20:57:05.878Z,59.62
2023-02-05T20:59:33.882Z,59.96
2023-02-05T21:02:02.920Z,59.27
2023-02-05T21:04:31.194Z,59.54
2023-02-05T21:06:59.478Z,59.09
2023-02-05T21:09:27.528Z,59.69
2023-02-05T21:11:55.835Z,60.12
2023-02-05T21:14:24.070Z,60.53
2023-02-05T21:16:52.294Z,59.78
2023-02-05T21:19:20.586Z,59.73
2023-02-05T21:21:50.144Z,60.15
2023-02-05T21:24:18.718Z,60.20
2023-02-05T21:26:49.154Z,60.42
2023-02-05T21:29:20.382Z,60.16
2023-02-05T21:31:53.187Z,60.06
2023-02-05T21:34:25.079Z,59.66
2023-02-05T21:36:55.184Z,59.79
2023-02-05T21:39:23.386Z,59.89
2023-02-05T21:41:53.528Z,60.02
2023-02-05T21:44:21.774Z,60.59
2023-02-05T21:46:50.045Z,60.57
2023-02-05T21:49:17.865Z,60.62
2023-02-05T21:51:48.176Z,60.70
2023-02-05T21:54:16.350Z,60.94
2023-02-05T21:56:44.387Z,61.16
2023-02-05T21:59:13.386Z,61.33
2023-02-05T22:01:42.651Z,61.30
2023-02-05T22:04:16.767Z,61.54
2023-02-05T22:06:45.150Z,61.18
2023-02-05T22:09:15.170Z,61.33
2023-02-05T22:11:44.970Z,61.00
2023-02-05T22:14:12.806Z,60.86
2023-02-05T22:16:41.311Z,61.32
2023-02-05T22:19:09.193Z,59.97
2023-02-05T22:21:42.880Z,59.47
2023-02-05T22:24:15.119Z,58.91
2023-02-05T22:26:44.711Z,59.04
2023-02-05T22:29:18.397Z,58.76
2023-02-05T22:31:52.125Z,59.39
2023-02-05T22:34:20.677Z,59.67
2023-02-05T22:36:48.908Z,60.00
2023-02-05T22:39:16.708Z,60.25
2023-02-05T22:41:44.808Z,60.35
2023-02-05T22:44:12.961Z,59.86
2023-02-05T22:46:43.482Z,59.71
2023-02-05T22:49:15.485Z,59.38
2023-02-05T22:51:44.501Z,59.63
2023-02-05T22:54:15.216Z,59.40
2023-02-05T22:56:43.877Z,59.66
2023-02-05T22:59:11.724Z,59.52
2023-02-05T23:01:39.934Z,59.93
2023-02-05T23:04:09.079Z,60.24
2023-02-05T23:06:40.989Z,59.87
2023-02-05T23:09:17.509Z,59.41
2023-02-05T23:11:46.458Z,59.71
2023-02-05T23:14:16.242Z,59.63
2023-02-05T23:16:46.005Z,59.97
2023-02-05T23:19:19.820Z,60.24
2023-02-05T23:21:48.678Z,59.81
2023-02-05T23:24:17.812Z,60.09
2023-02-05T23:26:48.164Z,59.61
2023-02-05T23:29:16.743Z,59.89
2023-02-05T23:31:45.845Z,59.77
2023-02-05T23:34:13.843Z,59.88
2023-02-05T23:36:41.917Z,58.88
2023-02-05T23:39:09.751Z,59.33
2023-02-05T23:41:39.837Z,59.76
2023-02-05T23:44:28.184Z,59.51
2023-02-05T23:46:56.317Z,59.31
2023-02-05T23:49:24.166Z,59.46
2023-02-05T23:51:54.662Z,59.11
2023-02-05T23:54:23.657Z,59.63
2023-02-05T23:56:52.814Z,59.13
2023-02-05T23:59:20.582Z,59.15
